Netcong, New Jersey
Current Conditions -  °F | °C
As of 2:45 PM on Thursday 27 Nov 2014 (Local Time) from KMMU Reporting Station
Overcast Overcast  
Wind Chill: 34°   Ceiling: 1600
Heat Index: 37°   Visibility: 10mi
Dew Point: 30°   Wind: 5mph
Humidity: 75%   Direction: 350°N
Pressure: 30"   Gusts: NA
Location:  40.9°N, 74.71°W
Report Text: KMMU 271945Z 35004KT 10SM OVC016 03/M01 A3000
Loading
Personal Weather Stations






























Interactive Weather Map New forecast layout! Learn more

10-Day Weather Forecast

Advertisements
Track Severe Weather on mobile